Owings, MD

4:36 PM EDT on May 06, 2015 (GMT -0400)
Andrews Air Force Base-Naf | | Change Station
CLOSE
Current Station
Airport
Location: Andrews AFB,
Elevation: 282 ft
Nearby Weather Stations

Elev 282 ft 38.81 °N, 76.87 °W | Updated 38 minutes ago

Clear
Clear
78 °F
Feels Like 78 °F
N
9
Wind Variable Wind from East

Today
High -- | Low -- °F
--% Chance of Precip.
Yesterday
High -- | Low -- °F
Precip. -- in
6:03 AM 8:03 PM
Waning Gibbous, 92% visible
Pressure 30.18 in
Visibility 10.0 miles
Clouds Clear
Dew Point 64 °F
Humidity 61%
Rainfall 0.00 in
Snow Depth Not available.
UV 7 out of 12
Pollen 7.50 out of 12
Air Quality Not available.
Flu Activity Local Activity
METAR KADW 061958Z AUTO 10008KT 10SM CLR 26/18 A3016 RMK AO2 LTG DSNT W SLP218 T02570176 $

More Conditions Fewer Conditions

Pressure 30.18 in
Visibility 10.0 miles
Clouds Clear
Dew Point 64 °F
Humidity 61%
Rainfall 0.00 in
Snow Depth Not available.
UV 7 out of 12
Pollen 7.50 out of 12
Air Quality Not available.
Flu Activity Local Activity
METAR KADW 061958Z AUTO 10008KT 10SM CLR 26/18 A3016 RMK AO2 LTG DSNT W SLP218 T02570176 $

More Conditions Fewer Conditions

10-Day Weather Forecast

Almanac

Astronomy

May. 06, 2015 Rise Set
Actual Time
Civil Twilight
Nautical Twilight
Astronomical Twilight
Moon
Length of Visible Light
Length of Day
Tomorrow will be .
, % of the Moon is Illuminated

Today's Extremes

State Highs State Lows

Community

WunderPhotos

Upload Photos

1,819,011 photos uploaded!

WunderBlogs® & News

Nearby

Air Quality

  Air Quality AQ Index Pollutant
Not available.

Snow Depth

Station Depth Elevation

Earthquake Activity

City Distance Mag. Time & Date
Minimum magnitude displayed is 2.5.

Coastal Water Temperatures

Place Temperature

Stations

Nearby Weather Stations

Station Location Temp. Windchill Dew Point Humidity Wind Precip. Elev Updated Type